This is the latest recevied weather packets stored in our database for station/object OE6CUD-6. If no packets are shown the sender has not sent any weather packets the latest 10 day(s).
| Time | Temp. | Humidity | Pressure | Rain* | Wind** | Luminosity | Snow |
|---|---|---|---|---|---|---|---|
| 1777396163 | 17.78° C | 57% | 1016.8 hPa | 0 mm | - | 19 W/m² | - |
| 1777394498 | 17.78° C | 57% | 1016.6 hPa | 0 mm | - | 28 W/m² | - |
| 1777393748 | 18.33° C | 56% | 1016.6 hPa | 0 mm | - | 37 W/m² | - |
| 1777391471 | 18.89° C | 55% | 1016.6 hPa | 0 mm | - | 81 W/m² | - |
| 1777386961 | 20° C | 52% | 1016.7 hPa | 0 mm | - | 281 W/m² | - |
| 1777385900 | 20° C | 53% | 1016.8 hPa | 0 mm | - | 369 W/m² | - |
| 1777382430 | 21.11° C | 49% | 1017.5 hPa | 0 mm | - | 554 W/m² | - |
| 1777381830 | 20.56° C | 50% | 1017.7 hPa | 0 mm | - | 545 W/m² | - |
| 1777380320 | 20° C | 50% | 1017.7 hPa | 0 mm | - | 626 W/m² | - |
| 1777380012 | 20.56° C | 50% | 1017.8 hPa | 0 mm | - | 650 W/m² | - |
| 1777379397 | 21.11° C | 50% | 1018 hPa | 0 mm | - | 557 W/m² | - |
| 1777376343 | 20° C | 53% | 1018 hPa | 0 mm | - | 671 W/m² | - |
| 1777373341 | 18.89° C | 56% | 1018.5 hPa | 0 mm | - | 510 W/m² | - |
| 1777372743 | 18.33° C | 55% | 1018.5 hPa | 0 mm | - | 464 W/m² | - |
| 1777371241 | 19.44° C | 53% | 1018.9 hPa | 0 mm | - | 464 W/m² | - |
| 1777367627 | 17.22° C | 56% | 1018.9 hPa | 0 mm | - | 459 W/m² | - |
| 1777367182 | 17.22° C | 56% | 1018.8 hPa | 0 mm | - | 606 W/m² | - |
| 1777365977 | 17.22° C | 59% | 1018.9 hPa | 0 mm | - | 519 W/m² | - |
| 1777365374 | 17.22° C | 59% | 1018.8 hPa | 0 mm | - | 316 W/m² | - |
| 1777362172 | 14.44° C | 62% | 1018.7 hPa | 0 mm | - | 183 W/m² | - |
| 1777360333 | 13.89° C | 64% | 1018.4 hPa | 0 mm | - | 151 W/m² | - |
| 1777358522 | 13.33° C | 72% | 1018.3 hPa | 0 mm | - | 174 W/m² | - |
| 1777357915 | 12.78° C | 76% | 1018.3 hPa | 0 mm | - | 137 W/m² | - |
| 1777357467 | 12.78° C | 75% | 1018.3 hPa | 0 mm | - | 118 W/m² | - |
| 1777356672 | 12.22° C | 76% | 1018.1 hPa | 0 mm | - | 118 W/m² | - |
* Rain latest hour (hover to see other rain measurements)
** Current wind speed in m/s (hover to see current wind gust speed)